sensor_id;sensor_type;location;lat;lon;timestamp;P1;durP1;ratioP1;P2;durP2;ratioP2
10945;SDS011;5525;42.648;23.368;2023-11-21T00:01:02;3.80;;;2.83;;
10945;SDS011;5525;42.648;23.368;2023-11-21T00:03:30;7.57;;;4.20;;
10945;SDS011;5525;42.648;23.368;2023-11-21T00:05:57;9.88;;;5.68;;
10945;SDS011;5525;42.648;23.368;2023-11-21T00:08:24;10.82;;;7.15;;
10945;SDS011;5525;42.648;23.368;2023-11-21T00:10:50;7.18;;;4.60;;
10945;SDS011;5525;42.648;23.368;2023-11-21T00:13:17;6.53;;;3.95;;
10945;SDS011;5525;42.648;23.368;2023-11-21T00:15:44;6.32;;;4.05;;
10945;SDS011;5525;42.648;23.368;2023-11-21T00:18:10;7.60;;;4.00;;
10945;SDS011;5525;42.648;23.368;2023-11-21T00:20:39;5.68;;;3.83;;
10945;SDS011;5525;42.648;23.368;2023-11-21T00:23:06;7.82;;;4.60;;
10945;SDS011;5525;42.648;23.368;2023-11-21T00:25:34;7.65;;;4.55;;
10945;SDS011;5525;42.648;23.368;2023-11-21T00:28:01;7.03;;;4.68;;
10945;SDS011;5525;42.648;23.368;2023-11-21T00:30:28;5.32;;;2.97;;
10945;SDS011;5525;42.648;23.368;2023-11-21T00:32:56;7.57;;;4.57;;
10945;SDS011;5525;42.648;23.368;2023-11-21T00:35:22;5.00;;;3.55;;
10945;SDS011;5525;42.648;23.368;2023-11-21T00:37:51;5.90;;;4.60;;
10945;SDS011;5525;42.648;23.368;2023-11-21T00:40:17;7.43;;;4.80;;
10945;SDS011;5525;42.648;23.368;2023-11-21T00:42:46;5.68;;;3.70;;
10945;SDS011;5525;42.648;23.368;2023-11-21T00:45:13;8.05;;;4.75;;
10945;SDS011;5525;42.648;23.368;2023-11-21T00:47:40;9.13;;;4.60;;
10945;SDS011;5525;42.648;23.368;2023-11-21T00:50:07;8.27;;;4.70;;
10945;SDS011;5525;42.648;23.368;2023-11-21T00:52:35;6.10;;;4.20;;
10945;SDS011;5525;42.648;23.368;2023-11-21T00:55:04;5.82;;;4.10;;
10945;SDS011;5525;42.648;23.368;2023-11-21T00:57:32;7.07;;;4.68;;
10945;SDS011;5525;42.648;23.368;2023-11-21T00:59:59;5.75;;;3.53;;
10945;SDS011;5525;42.648;23.368;2023-11-21T01:02:26;8.02;;;4.70;;
10945;SDS011;5525;42.648;23.368;2023-11-21T01:04:54;5.55;;;4.10;;
10945;SDS011;5525;42.648;23.368;2023-11-21T01:07:20;8.38;;;4.65;;
10945;SDS011;5525;42.648;23.368;2023-11-21T01:09:47;5.95;;;4.72;;
10945;SDS011;5525;42.648;23.368;2023-11-21T01:12:15;6.28;;;4.22;;
10945;SDS011;5525;42.648;23.368;2023-11-21T01:14:42;8.80;;;5.60;;
10945;SDS011;5525;42.648;23.368;2023-11-21T01:17:10;7.70;;;4.50;;
10945;SDS011;5525;42.648;23.368;2023-11-21T01:19:37;11.25;;;5.10;;
10945;SDS011;5525;42.648;23.368;2023-11-21T01:22:03;9.85;;;4.85;;
10945;SDS011;5525;42.648;23.368;2023-11-21T01:24:30;6.93;;;4.45;;
10945;SDS011;5525;42.648;23.368;2023-11-21T01:26:57;7.15;;;4.85;;
10945;SDS011;5525;42.648;23.368;2023-11-21T01:29:25;7.03;;;4.30;;
10945;SDS011;5525;42.648;23.368;2023-11-21T01:31:53;8.70;;;5.07;;
10945;SDS011;5525;42.648;23.368;2023-11-21T01:34:19;7.55;;;5.03;;
10945;SDS011;5525;42.648;23.368;2023-11-21T01:36:46;8.43;;;5.35;;
10945;SDS011;5525;42.648;23.368;2023-11-21T01:39:13;7.68;;;5.78;;
10945;SDS011;5525;42.648;23.368;2023-11-21T01:41:41;12.00;;;6.68;;
10945;SDS011;5525;42.648;23.368;2023-11-21T01:44:09;10.35;;;6.15;;
10945;SDS011;5525;42.648;23.368;2023-11-21T01:46:37;11.60;;;7.25;;
10945;SDS011;5525;42.648;23.368;2023-11-21T01:49:05;11.27;;;6.22;;
10945;SDS011;5525;42.648;23.368;2023-11-21T01:51:31;11.68;;;5.97;;
10945;SDS011;5525;42.648;23.368;2023-11-21T01:53:59;10.52;;;6.40;;
10945;SDS011;5525;42.648;23.368;2023-11-21T01:56:26;9.75;;;6.30;;
10945;SDS011;5525;42.648;23.368;2023-11-21T01:58:56;10.30;;;5.60;;
10945;SDS011;5525;42.648;23.368;2023-11-21T02:01:22;9.93;;;5.90;;
10945;SDS011;5525;42.648;23.368;2023-11-21T02:03:52;9.95;;;6.43;;
10945;SDS011;5525;42.648;23.368;2023-11-21T02:06:19;12.90;;;7.30;;
10945;SDS011;5525;42.648;23.368;2023-11-21T02:08:47;13.18;;;8.27;;
10945;SDS011;5525;42.648;23.368;2023-11-21T02:11:14;14.57;;;7.88;;
10945;SDS011;5525;42.648;23.368;2023-11-21T02:13:41;14.10;;;8.15;;
10945;SDS011;5525;42.648;23.368;2023-11-21T02:16:08;16.95;;;8.45;;
10945;SDS011;5525;42.648;23.368;2023-11-21T02:18:37;16.60;;;10.38;;
10945;SDS011;5525;42.648;23.368;2023-11-21T02:21:06;21.33;;;11.88;;
10945;SDS011;5525;42.648;23.368;2023-11-21T02:23:34;22.75;;;13.73;;
10945;SDS011;5525;42.648;23.368;2023-11-21T02:26:01;22.70;;;14.63;;
10945;SDS011;5525;42.648;23.368;2023-11-21T02:28:29;30.10;;;17.52;;
10945;SDS011;5525;42.648;23.368;2023-11-21T02:30:55;28.30;;;17.10;;
10945;SDS011;5525;42.648;23.368;2023-11-21T02:33:24;28.70;;;17.90;;
10945;SDS011;5525;42.648;23.368;2023-11-21T02:35:50;28.85;;;17.35;;
10945;SDS011;5525;42.648;23.368;2023-11-21T02:38:19;30.40;;;16.30;;
10945;SDS011;5525;42.648;23.368;2023-11-21T02:40:48;22.25;;;13.80;;
10945;SDS011;5525;42.648;23.368;2023-11-21T02:43:15;16.75;;;9.10;;
10945;SDS011;5525;42.648;23.368;2023-11-21T02:45:41;26.25;;;13.10;;
10945;SDS011;5525;42.648;23.368;2023-11-21T02:48:08;23.77;;;12.85;;
10945;SDS011;5525;42.648;23.368;2023-11-21T02:50:35;19.15;;;11.75;;
10945;SDS011;5525;42.648;23.368;2023-11-21T02:53:02;19.05;;;10.68;;
10945;SDS011;5525;42.648;23.368;2023-11-21T02:55:30;14.88;;;9.20;;
10945;SDS011;5525;42.648;23.368;2023-11-21T02:58:01;16.20;;;10.63;;
10945;SDS011;5525;42.648;23.368;2023-11-21T03:00:29;15.20;;;9.57;;
10945;SDS011;5525;42.648;23.368;2023-11-21T03:02:56;18.88;;;11.77;;
10945;SDS011;5525;42.648;23.368;2023-11-21T03:05:23;16.88;;;11.18;;
10945;SDS011;5525;42.648;23.368;2023-11-21T03:07:49;16.10;;;10.23;;
10945;SDS011;5525;42.648;23.368;2023-11-21T03:10:16;22.80;;;12.15;;
10945;SDS011;5525;42.648;23.368;2023-11-21T03:12:44;22.65;;;12.13;;
10945;SDS011;5525;42.648;23.368;2023-11-21T03:15:12;19.95;;;10.35;;
10945;SDS011;5525;42.648;23.368;2023-11-21T03:17:40;12.50;;;8.95;;
10945;SDS011;5525;42.648;23.368;2023-11-21T03:20:07;13.32;;;7.80;;
10945;SDS011;5525;42.648;23.368;2023-11-21T03:22:36;20.38;;;8.25;;
10945;SDS011;5525;42.648;23.368;2023-11-21T03:25:04;17.67;;;8.93;;
10945;SDS011;5525;42.648;23.368;2023-11-21T03:27:31;15.23;;;9.57;;
10945;SDS011;5525;42.648;23.368;2023-11-21T03:29:58;11.77;;;7.57;;
10945;SDS011;5525;42.648;23.368;2023-11-21T03:32:26;12.90;;;7.55;;
10945;SDS011;5525;42.648;23.368;2023-11-21T03:34:53;13.10;;;7.53;;
10945;SDS011;5525;42.648;23.368;2023-11-21T03:37:21;16.00;;;8.25;;
10945;SDS011;5525;42.648;23.368;2023-11-21T03:39:48;12.68;;;8.15;;
10945;SDS011;5525;42.648;23.368;2023-11-21T03:42:15;13.82;;;8.32;;
10945;SDS011;5525;42.648;23.368;2023-11-21T03:44:42;14.55;;;7.70;;
10945;SDS011;5525;42.648;23.368;2023-11-21T03:47:09;12.40;;;8.38;;
10945;SDS011;5525;42.648;23.368;2023-11-21T03:49:37;16.80;;;8.57;;
10945;SDS011;5525;42.648;23.368;2023-11-21T03:52:04;16.95;;;8.63;;
10945;SDS011;5525;42.648;23.368;2023-11-21T03:54:32;9.73;;;6.53;;
10945;SDS011;5525;42.648;23.368;2023-11-21T03:56:59;12.82;;;7.80;;
10945;SDS011;5525;42.648;23.368;2023-11-21T03:59:26;13.50;;;7.95;;
10945;SDS011;5525;42.648;23.368;2023-11-21T04:01:54;10.18;;;6.70;;
10945;SDS011;5525;42.648;23.368;2023-11-21T04:04:21;11.13;;;6.85;;
10945;SDS011;5525;42.648;23.368;2023-11-21T04:06:50;10.90;;;6.70;;
10945;SDS011;5525;42.648;23.368;2023-11-21T04:09:18;12.75;;;7.55;;
10945;SDS011;5525;42.648;23.368;2023-11-21T04:11:44;11.27;;;7.43;;
10945;SDS011;5525;42.648;23.368;2023-11-21T04:14:12;12.70;;;8.25;;
10945;SDS011;5525;42.648;23.368;2023-11-21T04:16:40;11.70;;;7.18;;
10945;SDS011;5525;42.648;23.368;2023-11-21T04:19:07;13.95;;;8.10;;
10945;SDS011;5525;42.648;23.368;2023-11-21T04:21:35;13.02;;;8.48;;
10945;SDS011;5525;42.648;23.368;2023-11-21T04:24:04;14.30;;;9.68;;
10945;SDS011;5525;42.648;23.368;2023-11-21T04:26:31;13.00;;;8.00;;
10945;SDS011;5525;42.648;23.368;2023-11-21T04:28:58;12.75;;;8.85;;
10945;SDS011;5525;42.648;23.368;2023-11-21T04:31:25;15.85;;;8.73;;
10945;SDS011;5525;42.648;23.368;2023-11-21T04:33:52;13.52;;;8.45;;
10945;SDS011;5525;42.648;23.368;2023-11-21T04:36:18;12.20;;;7.90;;
10945;SDS011;5525;42.648;23.368;2023-11-21T04:38:46;10.52;;;7.82;;
10945;SDS011;5525;42.648;23.368;2023-11-21T04:41:14;12.30;;;7.10;;
10945;SDS011;5525;42.648;23.368;2023-11-21T04:43:40;12.57;;;7.53;;
10945;SDS011;5525;42.648;23.368;2023-11-21T04:46:08;15.13;;;8.00;;
10945;SDS011;5525;42.648;23.368;2023-11-21T04:48:35;17.20;;;8.50;;
10945;SDS011;5525;42.648;23.368;2023-11-21T04:51:02;15.20;;;7.78;;
10945;SDS011;5525;42.648;23.368;2023-11-21T04:53:29;14.70;;;7.85;;
10945;SDS011;5525;42.648;23.368;2023-11-21T04:55:56;13.73;;;8.10;;
10945;SDS011;5525;42.648;23.368;2023-11-21T04:58:24;13.45;;;7.63;;
10945;SDS011;5525;42.648;23.368;2023-11-21T05:00:51;14.32;;;8.13;;
10945;SDS011;5525;42.648;23.368;2023-11-21T05:03:16;13.68;;;7.75;;
10945;SDS011;5525;42.648;23.368;2023-11-21T05:05:43;14.23;;;8.63;;
10945;SDS011;5525;42.648;23.368;2023-11-21T05:08:10;16.48;;;8.63;;
10945;SDS011;5525;42.648;23.368;2023-11-21T05:10:37;10.20;;;7.38;;
10945;SDS011;5525;42.648;23.368;2023-11-21T05:13:04;8.25;;;6.18;;
10945;SDS011;5525;42.648;23.368;2023-11-21T05:15:36;11.43;;;8.13;;
10945;SDS011;5525;42.648;23.368;2023-11-21T05:18:03;13.68;;;8.57;;
10945;SDS011;5525;42.648;23.368;2023-11-21T05:20:30;14.32;;;7.90;;
10945;SDS011;5525;42.648;23.368;2023-11-21T05:22:58;11.43;;;7.28;;
10945;SDS011;5525;42.648;23.368;2023-11-21T05:25:25;19.55;;;7.95;;
10945;SDS011;5525;42.648;23.368;2023-11-21T05:27:51;10.07;;;5.93;;
10945;SDS011;5525;42.648;23.368;2023-11-21T05:30:19;9.43;;;5.53;;
10945;SDS011;5525;42.648;23.368;2023-11-21T05:32:49;8.85;;;6.00;;
10945;SDS011;5525;42.648;23.368;2023-11-21T05:35:16;7.28;;;3.90;;
10945;SDS011;5525;42.648;23.368;2023-11-21T05:37:43;5.35;;;3.78;;
10945;SDS011;5525;42.648;23.368;2023-11-21T05:40:10;7.97;;;5.30;;
10945;SDS011;5525;42.648;23.368;2023-11-21T05:42:38;17.25;;;7.20;;
10945;SDS011;5525;42.648;23.368;2023-11-21T05:45:05;12.25;;;6.00;;
10945;SDS011;5525;42.648;23.368;2023-11-21T05:47:36;9.65;;;5.10;;
10945;SDS011;5525;42.648;23.368;2023-11-21T05:50:06;9.65;;;5.65;;
10945;SDS011;5525;42.648;23.368;2023-11-21T05:52:38;9.35;;;5.43;;
10945;SDS011;5525;42.648;23.368;2023-11-21T05:55:05;12.07;;;5.85;;
10945;SDS011;5525;42.648;23.368;2023-11-21T05:57:33;15.65;;;8.48;;
10945;SDS011;5525;42.648;23.368;2023-11-21T06:00:01;13.43;;;7.47;;
10945;SDS011;5525;42.648;23.368;2023-11-21T06:02:36;24.50;;;9.05;;
10945;SDS011;5525;42.648;23.368;2023-11-21T06:05:03;18.77;;;10.00;;
10945;SDS011;5525;42.648;23.368;2023-11-21T06:07:32;19.65;;;10.80;;
10945;SDS011;5525;42.648;23.368;2023-11-21T06:10:00;20.30;;;11.50;;
10945;SDS011;5525;42.648;23.368;2023-11-21T06:12:31;20.65;;;11.75;;
10945;SDS011;5525;42.648;23.368;2023-11-21T06:15:00;20.45;;;12.48;;
10945;SDS011;5525;42.648;23.368;2023-11-21T06:17:29;22.23;;;12.55;;
10945;SDS011;5525;42.648;23.368;2023-11-21T06:19:55;25.08;;;13.88;;
10945;SDS011;5525;42.648;23.368;2023-11-21T06:22:24;23.25;;;12.80;;
10945;SDS011;5525;42.648;23.368;2023-11-21T06:24:50;19.65;;;12.43;;
10945;SDS011;5525;42.648;23.368;2023-11-21T06:27:17;20.27;;;14.25;;
10945;SDS011;5525;42.648;23.368;2023-11-21T06:29:44;21.80;;;11.93;;
10945;SDS011;5525;42.648;23.368;2023-11-21T06:32:12;22.63;;;14.35;;
10945;SDS011;5525;42.648;23.368;2023-11-21T06:34:41;18.20;;;12.02;;
10945;SDS011;5525;42.648;23.368;2023-11-21T06:37:08;23.42;;;14.30;;
10945;SDS011;5525;42.648;23.368;2023-11-21T06:39:36;26.10;;;14.00;;
10945;SDS011;5525;42.648;23.368;2023-11-21T06:42:03;23.10;;;13.45;;
10945;SDS011;5525;42.648;23.368;2023-11-21T06:44:30;25.30;;;13.90;;
10945;SDS011;5525;42.648;23.368;2023-11-21T06:46:58;29.58;;;13.13;;
10945;SDS011;5525;42.648;23.368;2023-11-21T06:49:25;25.83;;;15.13;;
10945;SDS011;5525;42.648;23.368;2023-11-21T06:51:52;26.13;;;14.52;;
10945;SDS011;5525;42.648;23.368;2023-11-21T06:54:20;27.67;;;14.45;;
10945;SDS011;5525;42.648;23.368;2023-11-21T06:56:49;28.10;;;14.45;;
10945;SDS011;5525;42.648;23.368;2023-11-21T06:59:16;19.30;;;13.23;;
10945;SDS011;5525;42.648;23.368;2023-11-21T07:01:42;22.42;;;12.18;;
10945;SDS011;5525;42.648;23.368;2023-11-21T07:04:09;20.00;;;12.32;;
10945;SDS011;5525;42.648;23.368;2023-11-21T07:06:36;20.10;;;12.98;;
10945;SDS011;5525;42.648;23.368;2023-11-21T07:09:03;21.08;;;13.63;;
10945;SDS011;5525;42.648;23.368;2023-11-21T07:11:30;23.27;;;13.57;;
10945;SDS011;5525;42.648;23.368;2023-11-21T07:13:59;30.10;;;14.50;;
10945;SDS011;5525;42.648;23.368;2023-11-21T07:16:27;19.67;;;11.73;;
10945;SDS011;5525;42.648;23.368;2023-11-21T07:18:55;12.70;;;8.40;;
10945;SDS011;5525;42.648;23.368;2023-11-21T07:21:22;22.40;;;13.57;;
10945;SDS011;5525;42.648;23.368;2023-11-21T07:23:49;18.67;;;12.35;;
10945;SDS011;5525;42.648;23.368;2023-11-21T07:26:17;18.20;;;11.63;;
10945;SDS011;5525;42.648;23.368;2023-11-21T07:28:43;19.13;;;10.32;;
10945;SDS011;5525;42.648;23.368;2023-11-21T07:31:11;18.83;;;11.05;;
10945;SDS011;5525;42.648;23.368;2023-11-21T07:33:39;17.98;;;10.65;;
10945;SDS011;5525;42.648;23.368;2023-11-21T07:36:06;22.30;;;10.98;;
10945;SDS011;5525;42.648;23.368;2023-11-21T07:38:33;19.73;;;11.57;;
10945;SDS011;5525;42.648;23.368;2023-11-21T07:41:00;17.42;;;10.40;;
10945;SDS011;5525;42.648;23.368;2023-11-21T07:43:28;17.92;;;11.45;;
10945;SDS011;5525;42.648;23.368;2023-11-21T07:46:00;18.15;;;10.48;;
10945;SDS011;5525;42.648;23.368;2023-11-21T07:48:29;17.38;;;9.73;;
10945;SDS011;5525;42.648;23.368;2023-11-21T07:50:56;15.50;;;10.25;;
10945;SDS011;5525;42.648;23.368;2023-11-21T07:53:23;21.17;;;12.05;;
10945;SDS011;5525;42.648;23.368;2023-11-21T07:55:50;20.98;;;12.10;;
10945;SDS011;5525;42.648;23.368;2023-11-21T07:58:17;16.90;;;11.73;;
10945;SDS011;5525;42.648;23.368;2023-11-21T08:00:44;21.27;;;11.82;;
10945;SDS011;5525;42.648;23.368;2023-11-21T08:03:12;20.30;;;11.38;;
10945;SDS011;5525;42.648;23.368;2023-11-21T08:05:42;16.50;;;11.77;;
10945;SDS011;5525;42.648;23.368;2023-11-21T08:08:10;21.42;;;12.98;;
10945;SDS011;5525;42.648;23.368;2023-11-21T08:10:36;20.70;;;10.75;;
10945;SDS011;5525;42.648;23.368;2023-11-21T08:13:04;13.00;;;8.52;;
10945;SDS011;5525;42.648;23.368;2023-11-21T08:15:31;17.38;;;9.07;;
10945;SDS011;5525;42.648;23.368;2023-11-21T08:17:58;17.00;;;11.60;;
10945;SDS011;5525;42.648;23.368;2023-11-21T08:20:25;17.35;;;10.63;;
10945;SDS011;5525;42.648;23.368;2023-11-21T08:22:53;16.35;;;10.45;;
10945;SDS011;5525;42.648;23.368;2023-11-21T08:25:22;17.83;;;10.00;;
10945;SDS011;5525;42.648;23.368;2023-11-21T08:27:48;14.73;;;10.73;;
10945;SDS011;5525;42.648;23.368;2023-11-21T08:30:15;23.38;;;11.80;;
10945;SDS011;5525;42.648;23.368;2023-11-21T08:32:44;16.42;;;10.15;;
10945;SDS011;5525;42.648;23.368;2023-11-21T08:35:11;25.00;;;11.25;;
10945;SDS011;5525;42.648;23.368;2023-11-21T08:37:38;15.02;;;9.45;;
10945;SDS011;5525;42.648;23.368;2023-11-21T08:40:07;11.20;;;7.97;;
10945;SDS011;5525;42.648;23.368;2023-11-21T08:42:37;15.98;;;9.43;;
10945;SDS011;5525;42.648;23.368;2023-11-21T08:45:04;15.38;;;11.15;;
10945;SDS011;5525;42.648;23.368;2023-11-21T08:47:34;15.75;;;10.20;;
10945;SDS011;5525;42.648;23.368;2023-11-21T08:50:01;15.82;;;9.50;;
10945;SDS011;5525;42.648;23.368;2023-11-21T08:52:29;15.90;;;10.18;;
10945;SDS011;5525;42.648;23.368;2023-11-21T08:54:55;14.80;;;10.20;;
10945;SDS011;5525;42.648;23.368;2023-11-21T08:57:26;13.75;;;9.98;;
10945;SDS011;5525;42.648;23.368;2023-11-21T08:59:53;19.80;;;10.63;;
10945;SDS011;5525;42.648;23.368;2023-11-21T09:02:22;23.38;;;11.85;;
10945;SDS011;5525;42.648;23.368;2023-11-21T09:04:52;16.30;;;10.70;;
10945;SDS011;5525;42.648;23.368;2023-11-21T09:07:19;15.60;;;11.25;;
10945;SDS011;5525;42.648;23.368;2023-11-21T09:09:46;12.18;;;9.98;;
10945;SDS011;5525;42.648;23.368;2023-11-21T09:12:13;21.40;;;11.45;;
10945;SDS011;5525;42.648;23.368;2023-11-21T09:14:42;20.45;;;11.63;;
10945;SDS011;5525;42.648;23.368;2023-11-21T09:17:09;23.30;;;14.73;;
10945;SDS011;5525;42.648;23.368;2023-11-21T09:19:37;23.85;;;14.13;;
10945;SDS011;5525;42.648;23.368;2023-11-21T09:22:03;23.27;;;14.23;;
10945;SDS011;5525;42.648;23.368;2023-11-21T09:24:31;24.80;;;14.93;;
10945;SDS011;5525;42.648;23.368;2023-11-21T09:26:58;19.20;;;13.80;;
10945;SDS011;5525;42.648;23.368;2023-11-21T09:29:25;21.92;;;15.43;;
10945;SDS011;5525;42.648;23.368;2023-11-21T09:31:53;22.80;;;14.32;;
10945;SDS011;5525;42.648;23.368;2023-11-21T09:34:24;25.73;;;15.18;;
10945;SDS011;5525;42.648;23.368;2023-11-21T09:36:51;24.15;;;16.25;;
10945;SDS011;5525;42.648;23.368;2023-11-21T09:39:19;25.42;;;16.25;;
10945;SDS011;5525;42.648;23.368;2023-11-21T09:41:47;22.60;;;16.33;;
10945;SDS011;5525;42.648;23.368;2023-11-21T09:44:17;24.77;;;15.13;;
10945;SDS011;5525;42.648;23.368;2023-11-21T09:46:48;22.88;;;16.77;;
10945;SDS011;5525;42.648;23.368;2023-11-21T09:49:18;28.13;;;16.58;;
10945;SDS011;5525;42.648;23.368;2023-11-21T09:51:51;23.58;;;15.63;;
10945;SDS011;5525;42.648;23.368;2023-11-21T09:54:21;22.60;;;15.35;;
10945;SDS011;5525;42.648;23.368;2023-11-21T09:56:48;22.77;;;15.63;;
10945;SDS011;5525;42.648;23.368;2023-11-21T09:59:16;23.65;;;15.00;;
10945;SDS011;5525;42.648;23.368;2023-11-21T10:01:44;27.25;;;15.63;;
10945;SDS011;5525;42.648;23.368;2023-11-21T10:04:11;22.20;;;15.30;;
10945;SDS011;5525;42.648;23.368;2023-11-21T10:06:42;25.95;;;15.30;;
10945;SDS011;5525;42.648;23.368;2023-11-21T10:09:11;22.23;;;14.07;;
10945;SDS011;5525;42.648;23.368;2023-11-21T10:11:40;23.73;;;13.90;;
10945;SDS011;5525;42.648;23.368;2023-11-21T10:14:09;23.50;;;14.65;;
10945;SDS011;5525;42.648;23.368;2023-11-21T10:16:38;20.92;;;13.55;;
10945;SDS011;5525;42.648;23.368;2023-11-21T10:19:06;21.65;;;13.65;;
10945;SDS011;5525;42.648;23.368;2023-11-21T10:21:41;20.20;;;13.38;;
10945;SDS011;5525;42.648;23.368;2023-11-21T10:24:09;18.15;;;12.95;;
10945;SDS011;5525;42.648;23.368;2023-11-21T10:26:37;22.13;;;12.70;;
10945;SDS011;5525;42.648;23.368;2023-11-21T10:29:05;19.85;;;13.32;;
10945;SDS011;5525;42.648;23.368;2023-11-21T10:31:32;20.92;;;13.23;;
10945;SDS011;5525;42.648;23.368;2023-11-21T10:34:13;19.20;;;11.10;;
10945;SDS011;5525;42.648;23.368;2023-11-21T10:36:42;16.10;;;10.95;;
10945;SDS011;5525;42.648;23.368;2023-11-21T10:39:09;21.50;;;12.77;;
10945;SDS011;5525;42.648;23.368;2023-11-21T10:41:43;20.67;;;12.10;;
10945;SDS011;5525;42.648;23.368;2023-11-21T10:44:10;30.88;;;14.15;;
10945;SDS011;5525;42.648;23.368;2023-11-21T10:46:39;23.40;;;14.32;;
10945;SDS011;5525;42.648;23.368;2023-11-21T10:49:09;25.23;;;14.60;;
10945;SDS011;5525;42.648;23.368;2023-11-21T10:51:36;22.58;;;13.57;;
10945;SDS011;5525;42.648;23.368;2023-11-21T10:54:10;20.40;;;13.93;;
10945;SDS011;5525;42.648;23.368;2023-11-21T10:56:38;26.25;;;13.38;;
10945;SDS011;5525;42.648;23.368;2023-11-21T10:59:08;18.30;;;12.55;;
10945;SDS011;5525;42.648;23.368;2023-11-21T11:01:39;20.83;;;12.57;;
10945;SDS011;5525;42.648;23.368;2023-11-21T11:04:09;56.92;;;15.35;;
10945;SDS011;5525;42.648;23.368;2023-11-21T11:06:40;18.85;;;12.63;;
10945;SDS011;5525;42.648;23.368;2023-11-21T11:09:07;17.40;;;12.80;;
10945;SDS011;5525;42.648;23.368;2023-11-21T11:11:39;23.02;;;12.57;;
10945;SDS011;5525;42.648;23.368;2023-11-21T11:14:10;19.27;;;12.90;;
10945;SDS011;5525;42.648;23.368;2023-11-21T11:16:38;17.40;;;11.50;;
10945;SDS011;5525;42.648;23.368;2023-11-21T11:19:08;18.33;;;12.05;;
10945;SDS011;5525;42.648;23.368;2023-11-21T11:21:38;20.25;;;12.35;;
10945;SDS011;5525;42.648;23.368;2023-11-21T11:24:28;20.67;;;12.63;;
10945;SDS011;5525;42.648;23.368;2023-11-21T11:27:10;17.00;;;12.13;;
10945;SDS011;5525;42.648;23.368;2023-11-21T11:29:49;20.08;;;11.98;;
10945;SDS011;5525;42.648;23.368;2023-11-21T11:32:31;20.13;;;13.35;;
10945;SDS011;5525;42.648;23.368;2023-11-21T11:35:09;21.92;;;12.95;;
10945;SDS011;5525;42.648;23.368;2023-11-21T11:37:43;18.83;;;12.73;;
10945;SDS011;5525;42.648;23.368;2023-11-21T11:40:11;20.05;;;13.40;;
10945;SDS011;5525;42.648;23.368;2023-11-21T11:42:41;19.30;;;12.60;;
10945;SDS011;5525;42.648;23.368;2023-11-21T11:45:23;20.67;;;12.85;;
10945;SDS011;5525;42.648;23.368;2023-11-21T11:47:59;24.80;;;12.93;;
10945;SDS011;5525;42.648;23.368;2023-11-21T11:50:27;17.15;;;11.98;;
10945;SDS011;5525;42.648;23.368;2023-11-21T11:52:54;15.48;;;11.10;;
10945;SDS011;5525;42.648;23.368;2023-11-21T11:55:23;19.95;;;11.20;;
10945;SDS011;5525;42.648;23.368;2023-11-21T11:57:52;21.23;;;12.82;;
10945;SDS011;5525;42.648;23.368;2023-11-21T12:00:21;18.90;;;12.02;;
10945;SDS011;5525;42.648;23.368;2023-11-21T12:03:02;19.77;;;11.82;;
10945;SDS011;5525;42.648;23.368;2023-11-21T12:05:30;17.30;;;11.73;;
10945;SDS011;5525;42.648;23.368;2023-11-21T12:08:01;16.50;;;11.68;;
10945;SDS011;5525;42.648;23.368;2023-11-21T12:10:30;17.98;;;11.93;;
10945;SDS011;5525;42.648;23.368;2023-11-21T12:13:00;16.92;;;11.85;;
10945;SDS011;5525;42.648;23.368;2023-11-21T12:15:28;16.38;;;11.60;;
10945;SDS011;5525;42.648;23.368;2023-11-21T12:17:56;20.80;;;13.13;;
10945;SDS011;5525;42.648;23.368;2023-11-21T12:20:24;18.58;;;13.70;;
10945;SDS011;5525;42.648;23.368;2023-11-21T12:22:52;21.05;;;14.20;;
10945;SDS011;5525;42.648;23.368;2023-11-21T12:25:21;19.75;;;13.65;;
10945;SDS011;5525;42.648;23.368;2023-11-21T12:27:48;21.02;;;14.25;;
10945;SDS011;5525;42.648;23.368;2023-11-21T12:30:18;21.27;;;14.77;;
10945;SDS011;5525;42.648;23.368;2023-11-21T12:32:48;22.17;;;15.52;;
10945;SDS011;5525;42.648;23.368;2023-11-21T12:35:16;26.17;;;16.77;;
10945;SDS011;5525;42.648;23.368;2023-11-21T12:37:44;27.30;;;17.40;;
10945;SDS011;5525;42.648;23.368;2023-11-21T12:40:14;26.88;;;17.33;;
10945;SDS011;5525;42.648;23.368;2023-11-21T12:42:43;25.45;;;18.13;;
10945;SDS011;5525;42.648;23.368;2023-11-21T12:45:19;26.20;;;18.92;;
10945;SDS011;5525;42.648;23.368;2023-11-21T12:47:48;27.95;;;18.55;;
10945;SDS011;5525;42.648;23.368;2023-11-21T12:50:18;29.23;;;18.85;;
10945;SDS011;5525;42.648;23.368;2023-11-21T12:52:48;30.55;;;19.35;;
10945;SDS011;5525;42.648;23.368;2023-11-21T12:55:17;29.60;;;20.40;;
10945;SDS011;5525;42.648;23.368;2023-11-21T12:57:47;31.98;;;19.90;;
10945;SDS011;5525;42.648;23.368;2023-11-21T13:00:17;30.30;;;20.70;;
10945;SDS011;5525;42.648;23.368;2023-11-21T13:02:55;31.23;;;21.48;;
10945;SDS011;5525;42.648;23.368;2023-11-21T13:05:24;31.88;;;20.67;;
10945;SDS011;5525;42.648;23.368;2023-11-21T13:07:51;28.40;;;20.55;;
10945;SDS011;5525;42.648;23.368;2023-11-21T13:10:19;32.10;;;20.48;;
10945;SDS011;5525;42.648;23.368;2023-11-21T13:12:51;31.23;;;20.42;;
10945;SDS011;5525;42.648;23.368;2023-11-21T13:15:20;30.63;;;20.63;;
10945;SDS011;5525;42.648;23.368;2023-11-21T13:17:47;34.83;;;22.02;;
10945;SDS011;5525;42.648;23.368;2023-11-21T13:20:16;30.83;;;21.00;;
10945;SDS011;5525;42.648;23.368;2023-11-21T13:22:46;32.30;;;21.15;;
10945;SDS011;5525;42.648;23.368;2023-11-21T13:25:14;31.50;;;21.92;;
10945;SDS011;5525;42.648;23.368;2023-11-21T13:27:42;28.23;;;20.25;;
10945;SDS011;5525;42.648;23.368;2023-11-21T13:30:11;31.80;;;21.23;;
10945;SDS011;5525;42.648;23.368;2023-11-21T13:32:42;31.08;;;20.92;;
10945;SDS011;5525;42.648;23.368;2023-11-21T13:35:11;28.58;;;20.38;;
10945;SDS011;5525;42.648;23.368;2023-11-21T13:37:46;31.30;;;20.80;;
10945;SDS011;5525;42.648;23.368;2023-11-21T13:40:17;34.13;;;22.33;;
10945;SDS011;5525;42.648;23.368;2023-11-21T13:42:48;35.63;;;21.02;;
10945;SDS011;5525;42.648;23.368;2023-11-21T13:45:18;26.48;;;19.73;;
10945;SDS011;5525;42.648;23.368;2023-11-21T13:47:48;30.25;;;20.30;;
10945;SDS011;5525;42.648;23.368;2023-11-21T13:50:17;33.22;;;22.17;;
10945;SDS011;5525;42.648;23.368;2023-11-21T13:52:48;32.95;;;22.27;;
10945;SDS011;5525;42.648;23.368;2023-11-21T13:55:16;27.80;;;20.40;;
10945;SDS011;5525;42.648;23.368;2023-11-21T13:57:43;34.55;;;21.83;;
10945;SDS011;5525;42.648;23.368;2023-11-21T14:00:15;32.10;;;21.77;;
10945;SDS011;5525;42.648;23.368;2023-11-21T14:03:07;32.78;;;21.58;;
10945;SDS011;5525;42.648;23.368;2023-11-21T14:05:42;27.63;;;20.60;;
10945;SDS011;5525;42.648;23.368;2023-11-21T14:08:11;32.50;;;21.13;;
10945;SDS011;5525;42.648;23.368;2023-11-21T14:10:41;31.30;;;21.40;;
10945;SDS011;5525;42.648;23.368;2023-11-21T14:13:09;32.70;;;20.92;;
10945;SDS011;5525;42.648;23.368;2023-11-21T14:15:38;30.35;;;20.67;;
10945;SDS011;5525;42.648;23.368;2023-11-21T14:18:09;32.15;;;21.48;;
10945;SDS011;5525;42.648;23.368;2023-11-21T14:20:37;28.80;;;20.95;;
10945;SDS011;5525;42.648;23.368;2023-11-21T14:23:05;31.15;;;21.08;;
10945;SDS011;5525;42.648;23.368;2023-11-21T14:25:32;32.85;;;20.67;;
10945;SDS011;5525;42.648;23.368;2023-11-21T14:27:59;31.58;;;21.33;;
10945;SDS011;5525;42.648;23.368;2023-11-21T14:30:28;37.33;;;21.17;;
10945;SDS011;5525;42.648;23.368;2023-11-21T14:32:57;35.50;;;22.40;;
10945;SDS011;5525;42.648;23.368;2023-11-21T14:35:25;38.75;;;21.92;;